Time;durP1;ratioP1;P1;durP2;ratioP2;P2;SDS_P1;SDS_P2;PMS_P1;PMS_P2;Temp;Humidity;BMP_temperature;BMP_pressure;BME280_temperature;BME280_humidity;BME280_pressure;Samples;Min_cycle;Max_cycle;Signal;HPM_P1;HPM_P2
2021/08/22 00:02:04;;;;;;;6.23;5.77;;;;;;;18.86;98.87;100289.41;5014377;28;20189;-70
2021/08/22 00:04:30;;;;;;;6.30;5.80;;;;;;;18.76;98.82;100285.28;5014241;28;20254;-71
2021/08/22 00:06:56;;;;;;;5.70;5.30;;;;;;;18.76;99.64;100290.00;5014109;28;20574;-71
2021/08/22 00:09:21;;;;;;;6.97;5.70;;;;;;;18.82;99.59;100288.56;5014183;28;20177;-70
2021/08/22 00:11:48;;;;;;;6.30;5.80;;;;;;;18.72;99.74;100287.19;5014261;28;20224;-71
2021/08/22 00:14:14;;;;;;;7.63;5.50;;;;;;;18.72;99.64;100292.72;5013660;28;20282;-71
2021/08/22 00:16:39;;;;;;;6.00;5.50;;;;;;;18.81;99.64;100290.53;5014038;28;20188;-71
2021/08/22 00:19:04;;;;;;;5.80;5.40;;;;;;;18.72;99.90;100287.19;5013886;28;20259;-70
2021/08/22 00:21:30;;;;;;;5.73;5.33;;;;;;;18.55;100.00;100271.06;5013882;28;20349;-71
2021/08/22 00:23:55;;;;;;;6.03;5.63;;;;;;;18.61;100.00;100272.34;5013750;28;20183;-71
2021/08/22 00:26:20;;;;;;;6.87;6.27;;;;;;;18.67;100.00;100265.38;5013828;28;20203;-70
2021/08/22 00:28:46;;;;;;;7.33;6.63;;;;;;;18.52;100.00;100264.31;5013885;28;20407;-71
2021/08/22 00:31:11;;;;;;;7.30;6.70;;;;;;;18.41;100.00;100255.03;5013819;28;20176;-71
2021/08/22 00:33:37;;;;;;;6.10;5.70;;;;;;;18.34;100.00;100258.44;5013667;28;20173;-70
2021/08/22 00:36:02;;;;;;;8.07;5.73;;;;;;;18.33;100.00;100254.06;5014001;28;20505;-71
2021/08/22 00:38:30;;;;;;;5.63;5.20;;;;;;;18.44;100.00;100254.28;5013722;28;20181;-71
2021/08/22 00:40:56;;;;;;;6.00;5.60;;;;;;;18.36;100.00;100239.50;5013501;28;20210;-71
2021/08/22 00:43:21;;;;;;;5.73;5.33;;;;;;;18.31;100.00;100239.81;5013551;28;20176;-71
2021/08/22 00:45:47;;;;;;;5.73;5.33;;;;;;;18.29;100.00;100236.63;5013209;28;20180;-71
2021/08/22 00:48:12;;;;;;;5.53;5.13;;;;;;;18.30;100.00;100231.91;5012763;28;20230;-70
2021/08/22 00:50:38;;;;;;;5.93;5.23;;;;;;;18.22;100.00;100219.91;5013471;28;20213;-71
2021/08/22 00:53:07;;;;;;;6.23;5.73;;;;;;;18.09;100.00;100222.06;5013353;28;20663;-70
2021/08/22 00:55:33;;;;;;;6.10;5.70;;;;;;;18.00;100.00;100221.50;5013168;28;20555;-71
2021/08/22 00:57:58;;;;;;;6.50;6.00;;;;;;;17.95;100.00;100229.28;5013178;28;20177;-71
2021/08/22 01:00:24;;;;;;;6.63;6.07;;;;;;;17.88;100.00;100226.38;5013068;28;20277;-70
2021/08/22 01:03:13;;;;;;;6.40;5.80;;;;;;;17.88;100.00;100218.09;5013143;28;20177;-71
2021/08/22 01:06:06;;;;;;;6.67;6.17;;;;;;;17.92;100.00;100221.72;5013141;28;20530;-71
2021/08/22 01:08:36;;;;;;;5.93;5.53;;;;;;;17.89;100.00;100214.97;5012987;28;20177;-71
2021/08/22 01:11:24;;;;;;;6.20;5.60;;;;;;;17.95;100.00;100223.78;5013028;28;20180;-71
2021/08/22 01:13:57;;;;;;;5.67;5.27;;;;;;;17.99;100.00;100211.59;5012559;28;20184;-71
2021/08/22 01:16:26;;;;;;;6.50;6.00;;;;;;;17.82;100.00;100212.88;5012889;28;20191;-71
2021/08/22 01:18:55;;;;;;;5.70;5.30;;;;;;;17.78;100.00;100214.75;5012952;28;20176;-71
2021/08/22 01:21:22;;;;;;;5.67;5.23;;;;;;;17.66;100.00;100208.56;5012703;28;20617;-71
2021/08/22 01:23:53;;;;;;;5.97;5.57;;;;;;;17.66;100.00;100203.03;5012601;28;20180;-70
2021/08/22 01:26:24;;;;;;;5.80;5.30;;;;;;;17.63;100.00;100199.03;5012613;28;20256;-70
2021/08/22 01:28:51;;;;;;;6.27;5.77;;;;;;;17.75;100.00;100198.91;5012796;28;20160;-71
2021/08/22 01:31:19;;;;;;;5.13;4.77;;;;;;;17.83;100.00;100197.88;5012708;28;20231;-71
2021/08/22 01:33:47;;;;;;;5.43;5.10;;;;;;;17.86;100.00;100196.34;5012365;28;20184;-70
2021/08/22 01:36:13;;;;;;;5.50;5.10;;;;;;;17.83;100.00;100188.78;5012526;28;20164;-71
2021/08/22 01:38:40;;;;;;;5.17;4.77;;;;;;;17.76;100.00;100192.22;5012333;28;20234;-71
2021/08/22 01:41:06;;;;;;;4.87;4.57;;;;;;;17.65;100.00;100196.72;5012392;28;20558;-71
2021/08/22 01:43:35;;;;;;;4.70;4.30;;;;;;;17.53;100.00;100194.09;5012360;28;20718;-70
2021/08/22 01:46:02;;;;;;;4.20;3.90;;;;;;;17.43;100.00;100198.25;5012271;28;20180;-70
2021/08/22 01:48:28;;;;;;;5.30;4.90;;;;;;;17.33;100.00;100190.53;5012172;28;20180;-70
2021/08/22 01:50:58;;;;;;;5.40;5.00;;;;;;;17.31;100.00;100197.59;5012184;28;20219;-71
2021/08/22 01:53:24;;;;;;;6.10;5.60;;;;;;;16.85;100.00;100198.19;5012150;28;20219;-71
2021/08/22 01:55:50;;;;;;;4.90;4.50;;;;;;;17.00;100.00;100188.25;5011979;28;20205;-70
2021/08/22 01:58:16;;;;;;;6.67;6.17;;;;;;;16.61;100.00;100187.31;5011095;28;20538;-71
2021/08/22 02:00:41;;;;;;;6.40;5.80;;;;;;;16.84;100.00;100184.75;5011920;28;20204;-71
2021/08/22 02:03:17;;;;;;;6.23;5.73;;;;;;;16.97;100.00;100186.22;5011951;28;20177;-71
2021/08/22 02:05:45;;;;;;;5.17;4.77;;;;;;;17.00;100.00;100181.94;5011815;28;20179;-71
2021/08/22 02:08:15;;;;;;;6.63;6.03;;;;;;;16.40;100.00;100193.13;5011809;28;20173;-71
2021/08/22 02:10:53;;;;;;;7.27;6.77;;;;;;;16.33;100.00;100182.72;5011972;28;20169;-71
2021/08/22 02:13:22;;;;;;;6.10;5.60;;;;;;;16.50;100.00;100318.66;5011597;28;20574;-71
2021/08/22 02:15:51;;;;;;;6.73;6.23;;;;;;;16.64;100.00;100201.22;5011567;28;20195;-71
2021/08/22 02:18:17;;;;;;;5.83;5.43;;;;;;;16.66;100.00;100198.91;5011754;28;20542;-71
2021/08/22 02:20:45;;;;;;;5.73;5.43;;;;;;;16.72;100.00;100176.56;5011602;28;20204;-70
2021/08/22 02:23:12;;;;;;;6.43;5.93;;;;;;;16.51;100.00;100171.34;5011718;28;20259;-70
2021/08/22 02:25:38;;;;;;;6.20;5.70;;;;;;;16.31;100.00;100164.94;5011418;28;20176;-71
2021/08/22 02:28:04;;;;;;;6.30;5.80;;;;;;;16.48;100.00;100170.06;5011573;28;20173;-71
2021/08/22 02:30:37;;;;;;;6.47;5.97;;;;;;;16.61;100.00;100160.53;5011655;28;20255;-70
2021/08/22 02:33:04;;;;;;;6.07;5.57;;;;;;;16.28;100.00;100154.63;5011621;28;20553;-71
2021/08/22 02:35:30;;;;;;;5.93;5.50;;;;;;;16.35;100.00;100168.59;5011463;28;20546;-70
2021/08/22 02:37:55;;;;;;;6.17;5.67;;;;;;;16.42;100.00;100171.53;5011219;28;20175;-71
2021/08/22 02:40:20;;;;;;;6.20;5.70;;;;;;;16.46;100.00;100175.16;5011175;28;20250;-71
2021/08/22 02:42:46;;;;;;;5.93;5.53;;;;;;;16.42;100.00;100181.75;5011330;28;20276;-71
2021/08/22 02:45:11;;;;;;;6.27;5.87;;;;;;;16.49;100.00;100179.97;5011181;28;20640;-71
2021/08/22 02:47:37;;;;;;;5.33;4.93;;;;;;;16.47;100.00;100151.94;5011359;28;20176;-71
2021/08/22 02:50:03;;;;;;;5.83;5.10;;;;;;;16.44;100.00;100143.59;5011276;28;20191;-70
2021/08/22 02:52:29;;;;;;;6.50;5.90;;;;;;;16.53;100.00;100139.47;5011154;28;20200;-71
2021/08/22 02:54:54;;;;;;;5.57;5.17;;;;;;;16.43;100.00;100140.03;5010957;28;20205;-70
2021/08/22 02:57:19;;;;;;;5.27;4.90;;;;;;;16.33;100.00;100141.38;5011175;28;20216;-70
2021/08/22 02:59:45;;;;;;;6.17;5.67;;;;;;;16.10;100.00;100142.38;5011066;28;20177;-71
2021/08/22 03:02:11;;;;;;;6.43;5.93;;;;;;;15.60;100.00;100147.38;5011006;28;20169;-71
2021/08/22 03:04:36;;;;;;;6.63;6.17;;;;;;;15.50;100.00;100131.34;5011309;28;20231;-71
2021/08/22 03:07:01;;;;;;;7.20;6.67;;;;;;;15.85;100.00;100128.75;5011010;28;20180;-71
2021/08/22 03:09:27;;;;;;;6.70;6.20;;;;;;;15.94;100.00;100125.84;5010701;28;20180;-70
2021/08/22 03:11:52;;;;;;;6.17;5.67;;;;;;;15.93;100.00;100129.75;5011061;28;20628;-71
2021/08/22 03:14:18;;;;;;;6.57;6.07;;;;;;;15.97;100.00;100125.91;5010418;28;20207;-70
2021/08/22 03:16:43;;;;;;;6.17;5.67;;;;;;;16.04;100.00;100130.81;5011004;28;20177;-71
2021/08/22 03:19:08;;;;;;;6.70;6.20;;;;;;;16.09;100.00;100138.03;5010762;28;20202;-71
2021/08/22 03:21:34;;;;;;;6.83;6.17;;;;;;;16.17;100.00;100115.78;5011054;28;20327;-71
2021/08/22 03:23:59;;;;;;;7.07;6.57;;;;;;;16.13;100.00;100111.34;5010695;28;20315;-71
2021/08/22 03:26:25;;;;;;;7.30;6.80;;;;;;;16.13;100.00;100101.09;5010719;28;20275;-71
2021/08/22 03:28:51;;;;;;;7.87;7.27;;;;;;;16.09;100.00;100083.69;5010843;28;20519;-70
2021/08/22 03:31:16;;;;;;;7.27;6.77;;;;;;;16.22;100.00;100082.44;5010905;28;20173;-71
2021/08/22 03:33:42;;;;;;;7.50;6.90;;;;;;;16.32;100.00;100078.31;5010567;28;20230;-71
2021/08/22 03:36:07;;;;;;;7.17;6.60;;;;;;;16.31;100.00;100084.97;5010898;28;20536;-70
2021/08/22 03:38:32;;;;;;;6.90;6.30;;;;;;;16.26;100.00;100072.28;5010786;28;20216;-70
2021/08/22 03:40:58;;;;;;;7.63;7.03;;;;;;;16.26;100.00;100082.50;5010926;28;20232;-71
2021/08/22 03:43:23;;;;;;;8.13;7.47;;;;;;;16.23;100.00;100091.50;5010747;28;20176;-70
2021/08/22 03:45:49;;;;;;;7.33;6.83;;;;;;;16.17;100.00;100092.91;5010543;28;20173;-71
2021/08/22 03:48:14;;;;;;;7.17;6.40;;;;;;;16.19;100.00;100094.16;5010638;28;20639;-70
2021/08/22 03:50:39;;;;;;;7.30;6.60;;;;;;;16.25;100.00;100092.75;5010566;28;20180;-71
2021/08/22 03:53:05;;;;;;;8.03;6.47;;;;;;;16.31;100.00;100104.28;5010906;28;20245;-70
2021/08/22 03:55:30;;;;;;;7.00;6.30;;;;;;;16.33;100.00;100107.47;5010548;28;20259;-71
2021/08/22 03:57:55;;;;;;;7.10;6.50;;;;;;;16.09;100.00;100104.94;5010504;28;20185;-71
2021/08/22 04:00:20;;;;;;;7.43;6.83;;;;;;;16.15;100.00;100104.31;5010502;28;20580;-70
2021/08/22 04:02:46;;;;;;;7.37;6.87;;;;;;;16.19;100.00;100105.19;5010611;28;20204;-70
2021/08/22 04:05:12;;;;;;;6.73;6.13;;;;;;;16.25;100.00;100091.94;5010447;28;20181;-71
2021/08/22 04:07:44;;;;;;;7.27;6.67;;;;;;;16.39;100.00;100102.50;5010600;28;20177;-71
2021/08/22 04:10:10;;;;;;;8.57;7.40;;;;;;;16.45;100.00;100123.13;5010592;28;20176;-71
2021/08/22 04:12:35;;;;;;;3.80;3.37;;;;;;;15.88;100.00;100198.88;5010518;28;20594;-70
2021/08/22 04:15:01;;;;;;;5.07;4.63;;;;;;;15.40;100.00;100217.19;5009784;28;20201;-71
2021/08/22 04:17:26;;;;;;;7.50;6.90;;;;;;;15.18;100.00;100199.25;5010323;28;20216;-71
2021/08/22 04:19:52;;;;;;;8.40;7.60;;;;;;;15.16;100.00;100199.59;5010335;28;20624;-71
2021/08/22 04:22:17;;;;;;;8.53;7.83;;;;;;;15.16;100.00;100220.81;5011966;28;20181;-71
2021/08/22 04:24:43;;;;;;;7.73;7.13;;;;;;;15.15;100.00;100232.97;5013767;28;20230;-71
2021/08/22 04:27:08;;;;;;;9.53;8.63;;;;;;;15.11;100.00;100235.63;5013878;28;20195;-71
2021/08/22 04:29:37;;;;;;;9.27;8.50;;;;;;;15.14;100.00;100253.38;5013619;28;20176;-71
2021/08/22 04:32:03;;;;;;;9.07;8.10;;;;;;;15.14;100.00;100258.88;5013943;28;20192;-71
2021/08/22 04:34:28;;;;;;;9.40;8.60;;;;;;;15.12;100.00;100261.19;5013356;28;20180;-71
2021/08/22 04:36:54;;;;;;;9.43;8.63;;;;;;;15.14;100.00;100261.63;5013822;28;20180;-71
2021/08/22 04:39:19;;;;;;;9.67;8.80;;;;;;;15.15;100.00;100260.47;5013468;28;20180;-71
2021/08/22 04:41:46;;;;;;;9.50;8.70;;;;;;;15.16;100.00;100251.06;5013440;28;20615;-71
2021/08/22 04:44:15;;;;;;;9.03;8.30;;;;;;;15.20;100.00;100243.75;5013380;28;20173;-71
2021/08/22 04:46:41;;;;;;;9.53;8.73;;;;;;;15.26;100.00;100256.13;5013312;28;20180;-71
2021/08/22 04:49:07;;;;;;;9.70;8.90;;;;;;;15.31;100.00;100271.56;5013468;28;20173;-71
2021/08/22 04:51:32;;;;;;;9.40;8.60;;;;;;;15.42;100.00;100258.94;5012024;28;20218;-71
2021/08/22 04:53:57;;;;;;;8.93;8.07;;;;;;;15.58;100.00;100239.72;5013137;28;20546;-71
2021/08/22 04:56:23;;;;;;;7.70;7.10;;;;;;;15.64;100.00;100227.34;5013344;28;20260;-71
2021/08/22 04:58:49;;;;;;;9.27;8.33;;;;;;;15.73;100.00;100214.22;5013083;28;20175;-71
2021/08/22 05:01:14;;;;;;;9.77;8.30;;;;;;;15.62;100.00;100188.31;5013045;28;20646;-77
2021/08/22 05:03:39;;;;;;;9.37;8.57;;;;;;;15.59;100.00;100189.00;5012815;28;20180;-72
2021/08/22 05:06:05;;;;;;;9.03;8.23;;;;;;;15.80;100.00;100184.13;5012878;28;20211;-71
2021/08/22 05:08:30;;;;;;;9.00;8.20;;;;;;;15.88;100.00;100169.38;5009844;28;20629;-72
2021/08/22 05:10:55;;;;;;;8.17;7.57;;;;;;;15.98;100.00;100163.34;5007286;28;20187;-72
2021/08/22 05:13:22;;;;;;;8.00;7.40;;;;;;;16.08;100.00;100172.25;5012654;28;20543;-71
2021/08/22 05:15:50;;;;;;;8.40;7.67;;;;;;;16.11;100.00;100174.28;5012581;28;20192;-72
2021/08/22 05:18:15;;;;;;;8.50;7.53;;;;;;;16.13;100.00;100167.25;5012790;28;20219;-72
2021/08/22 05:20:41;;;;;;;7.83;7.13;;;;;;;16.21;100.00;100165.50;5012657;28;20212;-71
2021/08/22 05:23:06;;;;;;;8.27;7.67;;;;;;;16.26;100.00;100163.25;5012772;28;20183;-71
2021/08/22 05:25:31;;;;;;;7.60;7.10;;;;;;;16.31;100.00;100171.25;5011134;28;20643;-72
2021/08/22 05:27:56;;;;;;;7.53;6.93;;;;;;;16.31;100.00;100171.25;5012936;28;20176;-72
2021/08/22 05:30:22;;;;;;;6.97;6.47;;;;;;;16.25;100.00;100171.88;5012460;28;20694;-72
2021/08/22 05:32:47;;;;;;;7.77;7.07;;;;;;;15.77;100.00;100182.09;5012285;28;20181;-72
2021/08/22 05:35:12;;;;;;;8.23;7.53;;;;;;;15.83;100.00;100197.19;5012401;28;20180;-71
2021/08/22 05:37:38;;;;;;;9.60;8.70;;;;;;;16.01;100.00;100203.16;5012409;28;20243;-71
2021/08/22 05:40:04;;;;;;;9.37;8.57;;;;;;;16.04;100.00;100210.72;5012606;28;20176;-71
2021/08/22 05:42:29;;;;;;;9.17;8.47;;;;;;;16.13;100.00;100216.06;5012370;28;20433;-71
2021/08/22 05:44:54;;;;;;;8.13;7.43;;;;;;;16.09;100.00;100227.00;5012132;28;20632;-71
2021/08/22 05:47:21;;;;;;;8.23;7.53;;;;;;;16.00;100.00;100227.16;5012205;28;20176;-72
2021/08/22 05:49:47;;;;;;;8.23;7.47;;;;;;;15.99;100.00;100220.06;5011592;28;20176;-71
2021/08/22 05:52:13;;;;;;;7.53;6.93;;;;;;;16.04;100.00;100225.28;5010179;28;20536;-72
2021/08/22 05:54:39;;;;;;;8.10;7.37;;;;;;;16.04;100.00;100218.97;5011969;28;20192;-72
2021/08/22 05:57:05;;;;;;;8.10;7.43;;;;;;;15.89;100.00;100228.03;5017475;28;20302;-71
2021/08/22 05:59:30;;;;;;;8.13;7.53;;;;;;;15.64;100.00;100232.88;5016958;28;20629;-71
2021/08/22 06:01:55;;;;;;;8.53;7.73;;;;;;;15.69;100.00;100247.19;5002343;28;20358;-72
2021/08/22 06:04:21;;;;;;;8.90;8.00;;;;;;;15.63;100.00;100237.56;5003744;28;20179;-71
2021/08/22 06:06:46;;;;;;;9.53;8.63;;;;;;;15.68;100.00;100242.81;5001820;28;20169;-71
2021/08/22 06:09:12;;;;;;;9.33;8.53;;;;;;;15.82;100.00;100242.41;5004682;28;20655;-71
2021/08/22 06:11:37;;;;;;;8.73;8.03;;;;;;;15.97;100.00;100249.91;5000333;28;20459;-71
2021/08/22 06:14:02;;;;;;;14.03;8.20;;;;;;;15.97;100.00;100252.69;4992181;28;20252;-71
2021/08/22 06:16:28;;;;;;;8.03;7.23;;;;;;;16.13;100.00;100257.41;4992555;28;20196;-71
2021/08/22 06:18:53;;;;;;;8.60;7.63;;;;;;;16.17;100.00;100261.84;4992334;28;20161;-71
2021/08/22 06:21:18;;;;;;;7.70;7.10;;;;;;;15.96;100.00;100264.06;4992064;28;20644;-72
2021/08/22 06:23:44;;;;;;;8.10;7.07;;;;;;;15.97;100.00;100255.44;4992041;28;20173;-71
2021/08/22 06:26:09;;;;;;;7.43;6.83;;;;;;;16.08;100.00;100254.94;4992092;28;20174;-71
2021/08/22 06:28:34;;;;;;;6.73;6.23;;;;;;;16.28;100.00;100259.41;4992177;28;20181;-72
2021/08/22 06:31:00;;;;;;;7.40;6.80;;;;;;;16.40;100.00;100262.06;4991981;28;20169;-72
2021/08/22 06:33:25;;;;;;;6.87;6.37;;;;;;;16.51;100.00;100274.19;4992080;28;20177;-72
2021/08/22 06:35:50;;;;;;;6.80;6.10;;;;;;;16.59;100.00;100278.72;4991668;28;20185;-72
2021/08/22 06:38:16;;;;;;;5.93;5.53;;;;;;;16.60;100.00;100279.50;4991866;28;20177;-72
2021/08/22 06:40:41;;;;;;;5.20;4.80;;;;;;;16.58;100.00;100260.56;4991808;28;20237;-71
2021/08/22 06:43:07;;;;;;;5.30;4.93;;;;;;;16.55;100.00;100260.47;4991831;28;20264;-71
2021/08/22 06:45:32;;;;;;;4.63;4.23;;;;;;;16.48;100.00;100321.75;4995231;28;20210;-71
2021/08/22 06:47:57;;;;;;;5.30;4.80;;;;;;;16.33;100.00;100306.78;5011334;28;20187;-71
2021/08/22 06:50:24;;;;;;;5.03;4.53;;;;;;;16.22;100.00;100250.59;5011292;28;20173;-71
2021/08/22 06:52:51;;;;;;;6.10;5.70;;;;;;;16.16;100.00;100248.44;5011261;28;20651;-71
2021/08/22 06:55:16;;;;;;;6.30;4.73;;;;;;;16.20;100.00;100241.06;5009427;28;20260;-71
2021/08/22 06:57:42;;;;;;;5.53;5.03;;;;;;;16.25;100.00;100252.63;5008211;28;20263;-72
2021/08/22 07:00:08;;;;;;;6.20;5.23;;;;;;;16.34;100.00;100252.44;5011062;28;20176;-71
2021/08/22 07:02:33;;;;;;;5.07;4.67;;;;;;;16.32;100.00;100296.91;5011081;28;20245;-71
2021/08/22 07:04:58;;;;;;;5.10;4.60;;;;;;;16.33;100.00;100298.53;5010926;28;20180;-71
2021/08/22 07:07:24;;;;;;;6.10;5.07;;;;;;;16.30;100.00;100298.44;5011086;28;20184;-72
2021/08/22 07:09:49;;;;;;;4.17;3.87;;;;;;;16.32;100.00;100307.94;5011024;28;20645;-72
2021/08/22 07:12:15;;;;;;;4.57;4.27;;;;;;;16.38;100.00;100300.25;5010943;28;20795;-72
2021/08/22 07:14:41;;;;;;;4.70;4.30;;;;;;;16.46;100.00;100293.75;5010522;28;20180;-72
2021/08/22 07:17:06;;;;;;;4.20;3.90;;;;;;;16.47;100.00;100287.06;5010849;28;20181;-72
2021/08/22 07:19:31;;;;;;;4.90;4.50;;;;;;;16.52;100.00;100292.34;5009148;28;20658;-72
2021/08/22 07:21:57;;;;;;;4.53;4.20;;;;;;;16.62;100.00;100275.22;5005547;28;20426;-72
2021/08/22 07:24:22;;;;;;;4.70;4.30;;;;;;;16.70;100.00;100267.19;5003378;28;20181;-72
2021/08/22 07:26:48;;;;;;;4.37;4.07;;;;;;;16.71;100.00;100258.53;5002422;28;20667;-72
2021/08/22 07:29:13;;;;;;;5.23;4.83;;;;;;;16.67;100.00;100257.66;5010856;28;20176;-71
2021/08/22 07:31:38;;;;;;;4.80;4.40;;;;;;;16.66;100.00;100267.06;5010867;28;20635;-71
2021/08/22 07:34:04;;;;;;;5.53;4.50;;;;;;;16.68;100.00;100273.06;5010755;28;20188;-71
2021/08/22 07:36:29;;;;;;;4.53;4.13;;;;;;;16.65;100.00;100271.78;5007532;28;20564;-71
2021/08/22 07:38:54;;;;;;;5.20;4.37;;;;;;;16.69;100.00;100266.38;5006394;28;20176;-71
2021/08/22 07:41:20;;;;;;;4.00;3.70;;;;;;;16.69;100.00;100282.94;4991206;28;20201;-71
2021/08/22 07:43:45;;;;;;;3.37;3.17;;;;;;;16.72;100.00;100284.16;5007571;28;20195;-71
2021/08/22 07:46:10;;;;;;;3.90;3.60;;;;;;;16.80;100.00;100283.19;5005990;28;20549;-75
2021/08/22 07:48:36;;;;;;;3.90;3.60;;;;;;;16.90;100.00;100297.25;5015066;28;20251;-72
2021/08/22 07:51:01;;;;;;;3.87;3.57;;;;;;;16.82;100.00;100286.41;5010935;28;20180;-72
2021/08/22 07:53:27;;;;;;;3.57;3.27;;;;;;;16.77;100.00;100298.50;5010780;28;20185;-72
2021/08/22 07:55:52;;;;;;;3.80;3.53;;;;;;;16.78;100.00;100304.81;5011770;28;20205;-72
2021/08/22 07:58:17;;;;;;;4.10;3.80;;;;;;;16.77;100.00;100323.31;5014475;28;20685;-71
2021/08/22 08:00:43;;;;;;;4.40;4.10;;;;;;;16.75;100.00;100314.59;5013082;28;20200;-72
2021/08/22 08:03:08;;;;;;;4.27;3.87;;;;;;;16.74;100.00;100317.72;5014378;28;20209;-71
2021/08/22 08:05:33;;;;;;;3.47;3.23;;;;;;;16.72;100.00;100309.81;5013766;28;20183;-72
2021/08/22 08:08:02;;;;;;;3.10;2.90;;;;;;;16.70;100.00;100314.09;5013882;28;20175;-72
2021/08/22 08:10:27;;;;;;;3.70;3.50;;;;;;;16.69;100.00;100323.50;5014269;28;20216;-73
2021/08/22 08:12:53;;;;;;;7.10;3.07;;;;;;;16.70;100.00;100330.63;5014005;28;20212;-72
2021/08/22 08:15:19;;;;;;;4.40;4.10;;;;;;;16.68;100.00;100322.72;5013856;28;20191;-72
2021/08/22 08:17:45;;;;;;;4.17;3.77;;;;;;;16.72;100.00;100336.59;5014214;28;20207;-72
2021/08/22 08:20:11;;;;;;;3.73;3.43;;;;;;;16.74;100.00;100331.53;5014356;28;20187;-72
2021/08/22 08:22:37;;;;;;;3.37;3.10;;;;;;;16.74;100.00;100345.31;5014129;28;20801;-73
2021/08/22 08:25:04;;;;;;;3.20;3.00;;;;;;;16.72;100.00;100342.91;5013852;28;20189;-73
2021/08/22 08:27:29;;;;;;;3.67;3.37;;;;;;;16.70;100.00;100356.25;5013984;28;20620;-72
2021/08/22 08:29:54;;;;;;;4.80;4.50;;;;;;;16.72;100.00;100356.72;5013953;28;20238;-72
2021/08/22 08:32:20;;;;;;;4.23;3.93;;;;;;;16.77;100.00;100358.38;5013869;28;20177;-73
2021/08/22 08:34:45;;;;;;;4.27;3.90;;;;;;;16.80;100.00;100371.50;5013813;28;20173;-72
2021/08/22 08:37:10;;;;;;;4.00;3.70;;;;;;;16.86;100.00;100348.78;5013822;28;20180;-72
2021/08/22 08:39:36;;;;;;;3.33;3.03;;;;;;;16.91;100.00;100356.00;5013719;28;20230;-72
2021/08/22 08:42:23;;;;;;;3.90;3.60;;;;;;;16.97;100.00;100326.97;5013877;28;20200;-73
2021/08/22 08:44:51;;;;;;;4.77;4.30;;;;;;;17.05;100.00;100355.53;5013528;28;20619;-72
2021/08/22 08:47:19;;;;;;;3.60;3.30;;;;;;;17.10;100.00;100350.56;5013595;28;20180;-73
2021/08/22 08:50:22;;;;;;;4.23;3.83;;;;;;;17.11;100.00;100374.25;5013455;28;20187;-72
2021/08/22 08:52:55;;;;;;;4.03;3.73;;;;;;;17.14;100.00;100376.31;5009673;28;20195;-72
2021/08/22 08:55:23;;;;;;;4.30;3.87;;;;;;;17.16;100.00;100390.53;5010671;28;20190;-69
2021/08/22 08:57:49;;;;;;;4.93;4.53;;;;;;;17.21;100.00;100370.97;5013180;28;20223;-68
2021/08/22 09:00:33;;;;;;;4.00;3.70;;;;;;;17.20;100.00;100396.16;4993631;28;20217;-69
2021/08/22 09:03:00;;;;;;;4.67;4.27;;;;;;;17.30;100.00;100392.06;4993685;28;20172;-69
2021/08/22 09:05:31;;;;;;;4.97;4.43;;;;;;;17.41;100.00;100406.94;4993667;28;20177;-72
2021/08/22 09:08:21;;;;;;;4.77;4.37;;;;;;;17.46;100.00;100414.94;4993013;28;20205;-73
2021/08/22 09:10:58;;;;;;;5.03;4.63;;;;;;;17.46;100.00;100412.97;4993545;28;20177;-72
2021/08/22 09:13:51;;;;;;;4.70;4.30;;;;;;;17.45;100.00;100408.59;4993103;28;20180;-72
2021/08/22 09:16:53;;;;;;;4.83;4.43;;;;;;;17.51;100.00;100418.22;4993190;28;20231;-73
2021/08/22 09:20:01;;;;;;;5.80;5.30;;;;;;;17.53;100.00;100437.22;4993779;28;20184;-73
2021/08/22 09:22:54;;;;;;;4.97;4.57;;;;;;;17.59;100.00;100430.25;4994673;28;20188;-73
2021/08/22 09:25:57;;;;;;;5.63;5.13;;;;;;;17.61;100.00;100444.50;5012887;28;20579;-73
2021/08/22 09:28:31;;;;;;;5.63;5.13;;;;;;;17.69;100.00;100442.75;5012816;28;20184;-72
2021/08/22 09:31:34;;;;;;;5.27;4.77;;;;;;;17.67;100.00;100426.50;5012838;28;20179;-73
2021/08/22 09:34:36;;;;;;;6.07;5.47;;;;;;;17.77;100.00;100448.06;5012821;28;20189;-73
2021/08/22 09:37:08;;;;;;;6.33;5.83;;;;;;;17.88;100.00;100433.69;5012788;28;20781;-72
2021/08/22 09:39:53;;;;;;;6.60;6.00;;;;;;;18.11;100.00;100448.44;5012599;28;20180;-73
2021/08/22 09:43:06;;;;;;;6.13;5.63;;;;;;;18.39;100.00;100453.78;5012274;28;20204;-73
2021/08/22 09:46:09;;;;;;;5.90;5.40;;;;;;;18.80;100.00;100468.81;5010940;28;20291;-73
2021/08/22 09:49:14;;;;;;;7.73;7.03;;;;;;;18.99;100.00;100479.88;5003130;28;20315;-73
2021/08/22 09:52:11;;;;;;;6.77;6.27;;;;;;;18.99;100.00;100452.19;5012300;28;20180;-74
2021/08/22 09:55:03;;;;;;;6.53;6.03;;;;;;;19.14;100.00;100442.16;5012120;28;20181;-73
2021/08/22 09:58:06;;;;;;;7.07;6.57;;;;;;;19.09;100.00;100439.69;5012171;28;20256;-73
2021/08/22 10:00:34;;;;;;;6.50;6.00;;;;;;;19.08;100.00;100437.28;5012179;28;20200;-73
2021/08/22 10:03:05;;;;;;;7.30;6.77;;;;;;;19.09;100.00;100433.34;5009963;28;20183;-73
2021/08/22 10:06:08;;;;;;;7.07;6.37;;;;;;;19.32;100.00;100440.50;5021704;28;20191;-73
2021/08/22 10:08:50;;;;;;;7.33;6.73;;;;;;;19.51;100.00;100395.25;5011744;28;20663;-80
2021/08/22 10:11:19;;;;;;;7.20;6.60;;;;;;;19.57;100.00;100431.81;5012401;28;20227;-72
2021/08/22 10:13:44;;;;;;;6.87;6.27;;;;;;;19.67;100.00;100416.50;5011792;28;20184;-72
2021/08/22 10:16:10;;;;;;;6.97;6.47;;;;;;;19.75;100.00;100357.22;5011982;28;20847;-73
2021/08/22 10:18:35;;;;;;;7.37;6.77;;;;;;;19.77;100.00;100355.69;5011682;28;20168;-73
2021/08/22 10:21:02;;;;;;;8.40;7.70;;;;;;;19.72;100.00;100411.47;5011239;28;20204;-73
2021/08/22 10:23:43;;;;;;;6.97;6.37;;;;;;;19.72;100.00;100405.91;5010509;28;20258;-73
2021/08/22 10:26:11;;;;;;;6.37;5.87;;;;;;;19.63;100.00;100355.47;5011974;28;20531;-73
2021/08/22 10:28:47;;;;;;;7.57;6.87;;;;;;;19.50;100.00;100349.31;5011589;28;20169;-73
2021/08/22 10:31:13;;;;;;;7.33;6.63;;;;;;;19.52;100.00;100355.28;5011723;28;20176;-73
2021/08/22 10:34:15;;;;;;;7.57;6.67;;;;;;;19.59;100.00;100355.44;5011525;28;20183;-73
2021/08/22 10:36:41;;;;;;;6.20;5.70;;;;;;;19.73;100.00;100352.06;5011660;28;20177;-73
2021/08/22 10:39:22;;;;;;;7.07;6.47;;;;;;;19.83;100.00;100353.41;5011551;28;20184;-73
2021/08/22 10:41:49;;;;;;;6.77;6.17;;;;;;;19.69;100.00;100350.44;5011371;28;20239;-72
2021/08/22 10:44:32;;;;;;;6.53;6.03;;;;;;;19.56;100.00;100372.81;5011434;28;20177;-73
2021/08/22 10:47:08;;;;;;;7.27;6.67;;;;;;;19.52;100.00;100355.28;5011445;28;20638;-72
2021/08/22 10:49:52;;;;;;;6.70;6.20;;;;;;;19.62;100.00;100331.72;5011403;28;20206;-72
2021/08/22 10:52:24;;;;;;;8.57;7.77;;;;;;;19.82;100.00;100337.94;5011318;28;20180;-73
2021/08/22 10:55:14;;;;;;;7.73;7.07;;;;;;;20.01;100.00;100342.53;5011303;28;20259;-73
2021/08/22 10:57:43;;;;;;;7.70;7.10;;;;;;;20.16;100.00;100341.50;5011364;28;20274;-73
2021/08/22 11:00:21;;;;;;;6.90;6.40;;;;;;;20.36;100.00;100342.91;5011040;28;20176;-72
2021/08/22 11:02:46;;;;;;;7.53;6.93;;;;;;;20.29;100.00;100345.63;5011144;28;20199;-71
2021/08/22 11:05:17;;;;;;;6.63;6.13;;;;;;;20.35;100.00;100349.66;5011058;28;20689;-72
2021/08/22 11:07:46;;;;;;;7.00;6.40;;;;;;;20.36;100.00;100342.91;5010679;28;20184;-72
2021/08/22 11:10:15;;;;;;;7.03;6.50;;;;;;;20.32;100.00;100338.50;5010996;28;20181;-72
2021/08/22 11:12:41;;;;;;;7.43;6.67;;;;;;;20.28;100.00;100332.13;5010667;28;20168;-72
2021/08/22 11:15:08;;;;;;;7.03;6.43;;;;;;;20.29;100.00;100334.53;5009817;28;20778;-72
2021/08/22 11:17:34;;;;;;;7.33;6.73;;;;;;;20.19;100.00;100324.91;5010922;28;20517;-72
2021/08/22 11:20:14;;;;;;;7.30;6.70;;;;;;;20.22;100.00;100389.91;5010529;28;20191;-72
2021/08/22 11:22:41;;;;;;;6.80;6.13;;;;;;;20.30;100.00;100330.56;5010849;28;20180;-72
2021/08/22 11:25:08;;;;;;;7.40;6.80;;;;;;;20.63;100.00;100337.28;5010434;28;20171;-72
2021/08/22 11:27:33;;;;;;;7.07;6.57;;;;;;;20.90;100.00;100321.25;5010331;28;20183;-72